sensor_id;sensor_type;location;lat;lon;timestamp;pressure;altitude;pressure_sealevel;temperature;humidity
73245;BME280;61460;41.158;-73.238;2023-05-25T00:00:33;101439.47;;;25.79;45.39
73245;BME280;61460;41.158;-73.238;2023-05-25T00:03:03;101457.59;;;25.77;45.44
73245;BME280;61460;41.158;-73.238;2023-05-25T00:05:34;101461.10;;;25.81;45.43
73245;BME280;61460;41.158;-73.238;2023-05-25T00:08:04;101469.05;;;25.86;45.35
73245;BME280;61460;41.158;-73.238;2023-05-25T00:10:35;101472.80;;;25.81;45.50
73245;BME280;61460;41.158;-73.238;2023-05-25T00:13:06;101476.77;;;25.87;45.43
73245;BME280;61460;41.158;-73.238;2023-05-25T00:15:37;101480.76;;;25.89;45.46
73245;BME280;61460;41.158;-73.238;2023-05-25T00:18:07;101483.13;;;25.78;45.72
73245;BME280;61460;41.158;-73.238;2023-05-25T00:20:38;101487.14;;;25.86;45.79
73245;BME280;61460;41.158;-73.238;2023-05-25T00:23:09;101490.46;;;25.92;45.63
73245;BME280;61460;41.158;-73.238;2023-05-25T00:25:39;101494.99;;;25.89;45.73
73245;BME280;61460;41.158;-73.238;2023-05-25T00:28:10;101495.72;;;25.93;45.68
73245;BME280;61460;41.158;-73.238;2023-05-25T00:30:40;101499.47;;;25.93;45.71
73245;BME280;61460;41.158;-73.238;2023-05-25T00:33:10;101511.70;;;25.97;45.63
73245;BME280;61460;41.158;-73.238;2023-05-25T00:35:42;101512.36;;;25.87;45.86
73245;BME280;61460;41.158;-73.238;2023-05-25T00:38:12;101513.62;;;25.84;46.18
73245;BME280;61460;41.158;-73.238;2023-05-25T00:40:42;101514.18;;;25.85;45.89
73245;BME280;61460;41.158;-73.238;2023-05-25T00:43:13;101509.86;;;25.83;45.83
73245;BME280;61460;41.158;-73.238;2023-05-25T00:45:43;101512.56;;;25.75;45.97
73245;BME280;61460;41.158;-73.238;2023-05-25T00:48:14;101526.65;;;25.79;45.80
73245;BME280;61460;41.158;-73.238;2023-05-25T00:50:44;101537.63;;;25.80;45.81
73245;BME280;61460;41.158;-73.238;2023-05-25T00:53:14;101543.35;;;25.80;45.89
73245;BME280;61460;41.158;-73.238;2023-05-25T00:55:51;101543.78;;;25.82;45.76
73245;BME280;61460;41.158;-73.238;2023-05-25T00:58:19;101551.33;;;25.82;45.90
73245;BME280;61460;41.158;-73.238;2023-05-25T01:00:47;101557.24;;;25.81;45.79
73245;BME280;61460;41.158;-73.238;2023-05-25T01:03:19;101560.00;;;25.77;45.90
73245;BME280;61460;41.158;-73.238;2023-05-25T01:05:47;101558.43;;;25.81;46.23
73245;BME280;61460;41.158;-73.238;2023-05-25T01:08:19;101566.32;;;25.84;45.69
73245;BME280;61460;41.158;-73.238;2023-05-25T01:10:48;101564.68;;;25.86;45.75
73245;BME280;61460;41.158;-73.238;2023-05-25T01:13:20;101570.75;;;25.86;45.70
73245;BME280;61460;41.158;-73.238;2023-05-25T01:15:50;101583.19;;;25.82;45.74
73245;BME280;61460;41.158;-73.238;2023-05-25T01:18:19;101592.88;;;25.79;45.70
73245;BME280;61460;41.158;-73.238;2023-05-25T01:20:58;101592.04;;;25.74;45.74
73245;BME280;61460;41.158;-73.238;2023-05-25T01:23:22;101601.74;;;25.75;45.68
73245;BME280;61460;41.158;-73.238;2023-05-25T01:25:53;101612.52;;;25.67;45.71
73245;BME280;61460;41.158;-73.238;2023-05-25T01:28:24;101620.49;;;25.70;45.57
73245;BME280;61460;41.158;-73.238;2023-05-25T01:30:52;101617.62;;;25.66;45.64
73245;BME280;61460;41.158;-73.238;2023-05-25T01:33:23;101620.05;;;25.71;45.50
73245;BME280;61460;41.158;-73.238;2023-05-25T01:35:53;101633.50;;;25.66;45.53
73245;BME280;61460;41.158;-73.238;2023-05-25T01:38:24;101631.41;;;25.76;45.21
73245;BME280;61460;41.158;-73.238;2023-05-25T01:40:54;101629.83;;;25.76;45.30
73245;BME280;61460;41.158;-73.238;2023-05-25T01:43:25;101623.94;;;25.83;45.20
73245;BME280;61460;41.158;-73.238;2023-05-25T01:46:04;101622.51;;;25.75;45.43
73245;BME280;61460;41.158;-73.238;2023-05-25T01:48:34;101618.09;;;25.73;45.39
73245;BME280;61460;41.158;-73.238;2023-05-25T01:50:59;101614.21;;;25.85;45.22
73245;BME280;61460;41.158;-73.238;2023-05-25T01:53:30;101612.43;;;25.80;45.42
73245;BME280;61460;41.158;-73.238;2023-05-25T01:55:59;101608.66;;;25.84;45.33
73245;BME280;61460;41.158;-73.238;2023-05-25T01:58:33;101610.44;;;25.83;45.37
73245;BME280;61460;41.158;-73.238;2023-05-25T02:00:59;101611.53;;;25.91;45.25
73245;BME280;61460;41.158;-73.238;2023-05-25T02:03:29;101618.82;;;25.86;45.35
73245;BME280;61460;41.158;-73.238;2023-05-25T02:05:59;101619.06;;;25.86;45.33
73245;BME280;61460;41.158;-73.238;2023-05-25T02:08:30;101617.53;;;25.88;45.33
73245;BME280;61460;41.158;-73.238;2023-05-25T02:11:01;101620.97;;;25.97;45.24
73245;BME280;61460;41.158;-73.238;2023-05-25T02:13:31;101622.96;;;25.92;45.22
73245;BME280;61460;41.158;-73.238;2023-05-25T02:16:02;101620.00;;;25.88;45.32
73245;BME280;61460;41.158;-73.238;2023-05-25T02:18:32;101618.59;;;25.84;45.52
73245;BME280;61460;41.158;-73.238;2023-05-25T02:21:02;101617.50;;;25.91;45.40
73245;BME280;61460;41.158;-73.238;2023-05-25T02:23:32;101611.19;;;25.91;45.38
73245;BME280;61460;41.158;-73.238;2023-05-25T02:26:02;101608.47;;;25.97;45.37
73245;BME280;61460;41.158;-73.238;2023-05-25T02:28:33;101612.84;;;25.92;45.55
73245;BME280;61460;41.158;-73.238;2023-05-25T02:31:03;101616.07;;;25.97;45.46
73245;BME280;61460;41.158;-73.238;2023-05-25T02:33:33;101616.20;;;26.08;45.20
73245;BME280;61460;41.158;-73.238;2023-05-25T02:36:04;101617.80;;;25.96;45.50
73245;BME280;61460;41.158;-73.238;2023-05-25T02:38:34;101623.06;;;26.04;45.33
73245;BME280;61460;41.158;-73.238;2023-05-25T02:41:05;101623.50;;;25.98;45.46
73245;BME280;61460;41.158;-73.238;2023-05-25T02:43:35;101624.85;;;26.05;45.28
73245;BME280;61460;41.158;-73.238;2023-05-25T02:46:06;101621.15;;;26.03;45.33
73245;BME280;61460;41.158;-73.238;2023-05-25T02:48:36;101629.42;;;26.03;45.32
73245;BME280;61460;41.158;-73.238;2023-05-25T02:51:06;101634.95;;;26.08;45.18
73245;BME280;61460;41.158;-73.238;2023-05-25T02:53:36;101634.93;;;26.10;45.11
73245;BME280;61460;41.158;-73.238;2023-05-25T02:56:06;101637.15;;;26.09;45.13
73245;BME280;61460;41.158;-73.238;2023-05-25T02:58:37;101635.66;;;26.02;45.27
73245;BME280;61460;41.158;-73.238;2023-05-25T03:01:07;101620.73;;;26.05;45.19
73245;BME280;61460;41.158;-73.238;2023-05-25T03:03:37;101621.57;;;26.09;45.10
73245;BME280;61460;41.158;-73.238;2023-05-25T03:06:08;101618.50;;;26.16;44.97
73245;BME280;61460;41.158;-73.238;2023-05-25T03:08:39;101620.46;;;26.03;45.28
73245;BME280;61460;41.158;-73.238;2023-05-25T03:11:09;101614.89;;;26.06;45.27
73245;BME280;61460;41.158;-73.238;2023-05-25T03:13:39;101612.23;;;26.08;45.23
73245;BME280;61460;41.158;-73.238;2023-05-25T03:16:10;101611.91;;;26.05;45.28
73245;BME280;61460;41.158;-73.238;2023-05-25T03:18:40;101613.23;;;26.11;45.15
73245;BME280;61460;41.158;-73.238;2023-05-25T03:21:11;101615.67;;;26.06;45.25
73245;BME280;61460;41.158;-73.238;2023-05-25T03:23:41;101613.49;;;26.12;45.13
73245;BME280;61460;41.158;-73.238;2023-05-25T03:26:12;101617.26;;;26.02;45.32
73245;BME280;61460;41.158;-73.238;2023-05-25T03:28:42;101625.17;;;26.05;45.26
73245;BME280;61460;41.158;-73.238;2023-05-25T03:31:12;101629.91;;;26.10;45.15
73245;BME280;61460;41.158;-73.238;2023-05-25T03:33:43;101618.31;;;26.17;44.97
73245;BME280;61460;41.158;-73.238;2023-05-25T03:36:13;101616.81;;;26.14;45.00
73245;BME280;61460;41.158;-73.238;2023-05-25T03:38:43;101602.87;;;26.07;45.15
73245;BME280;61460;41.158;-73.238;2023-05-25T03:41:14;101606.33;;;26.09;45.14
73245;BME280;61460;41.158;-73.238;2023-05-25T03:43:44;101614.68;;;26.03;45.27
73245;BME280;61460;41.158;-73.238;2023-05-25T03:46:15;101625.26;;;26.09;45.19
73245;BME280;61460;41.158;-73.238;2023-05-25T03:48:45;101627.78;;;26.13;45.15
73245;BME280;61460;41.158;-73.238;2023-05-25T03:51:16;101626.95;;;26.15;45.13
73245;BME280;61460;41.158;-73.238;2023-05-25T03:53:46;101629.89;;;26.14;45.15
73245;BME280;61460;41.158;-73.238;2023-05-25T03:56:17;101627.94;;;26.13;45.18
73245;BME280;61460;41.158;-73.238;2023-05-25T03:58:47;101631.30;;;26.10;45.31
73245;BME280;61460;41.158;-73.238;2023-05-25T04:01:17;101618.26;;;26.16;45.16
73245;BME280;61460;41.158;-73.238;2023-05-25T04:03:47;101625.47;;;26.18;45.13
73245;BME280;61460;41.158;-73.238;2023-05-25T04:06:18;101631.05;;;26.14;45.27
73245;BME280;61460;41.158;-73.238;2023-05-25T04:08:48;101636.33;;;26.15;45.27
73245;BME280;61460;41.158;-73.238;2023-05-25T04:11:19;101638.71;;;26.09;45.45
73245;BME280;61460;41.158;-73.238;2023-05-25T04:13:49;101637.40;;;26.07;45.53
73245;BME280;61460;41.158;-73.238;2023-05-25T04:16:20;101642.06;;;26.09;45.53
73245;BME280;61460;41.158;-73.238;2023-05-25T04:18:49;101646.46;;;26.08;45.59
73245;BME280;61460;41.158;-73.238;2023-05-25T04:21:20;101637.74;;;26.10;45.56
73245;BME280;61460;41.158;-73.238;2023-05-25T04:23:50;101632.08;;;26.05;45.68
73245;BME280;61460;41.158;-73.238;2023-05-25T04:26:21;101643.42;;;26.09;45.62
73245;BME280;61460;41.158;-73.238;2023-05-25T04:28:51;101647.19;;;26.12;45.53
73245;BME280;61460;41.158;-73.238;2023-05-25T04:31:22;101646.77;;;26.16;45.48
73245;BME280;61460;41.158;-73.238;2023-05-25T04:33:53;101642.93;;;26.05;45.74
73245;BME280;61460;41.158;-73.238;2023-05-25T04:36:23;101637.73;;;26.14;45.52
73245;BME280;61460;41.158;-73.238;2023-05-25T04:38:54;101645.19;;;26.13;45.57
73245;BME280;61460;41.158;-73.238;2023-05-25T04:41:24;101642.69;;;26.11;45.62
73245;BME280;61460;41.158;-73.238;2023-05-25T04:43:54;101641.06;;;26.13;45.62
73245;BME280;61460;41.158;-73.238;2023-05-25T04:46:25;101647.17;;;26.06;45.83
73245;BME280;61460;41.158;-73.238;2023-05-25T04:48:55;101650.45;;;26.05;45.89
73245;BME280;61460;41.158;-73.238;2023-05-25T04:51:25;101653.01;;;26.08;45.79
73245;BME280;61460;41.158;-73.238;2023-05-25T04:53:56;101647.32;;;26.10;45.72
73245;BME280;61460;41.158;-73.238;2023-05-25T04:56:27;101648.40;;;26.09;45.72
73245;BME280;61460;41.158;-73.238;2023-05-25T04:58:57;101651.55;;;26.04;45.79
73245;BME280;61460;41.158;-73.238;2023-05-25T05:01:28;101650.29;;;26.06;45.71
73245;BME280;61460;41.158;-73.238;2023-05-25T05:03:58;101641.52;;;25.94;46.00
73245;BME280;61460;41.158;-73.238;2023-05-25T05:06:29;101644.10;;;25.93;45.97
73245;BME280;61460;41.158;-73.238;2023-05-25T05:09:00;101650.69;;;26.03;45.75
73245;BME280;61460;41.158;-73.238;2023-05-25T05:11:30;101657.42;;;26.04;45.80
73245;BME280;61460;41.158;-73.238;2023-05-25T05:14:00;101657.46;;;25.99;45.90
73245;BME280;61460;41.158;-73.238;2023-05-25T05:16:31;101653.77;;;26.11;45.65
73245;BME280;61460;41.158;-73.238;2023-05-25T05:19:02;101640.06;;;26.06;45.75
73245;BME280;61460;41.158;-73.238;2023-05-25T05:21:32;101646.40;;;26.06;45.70
73245;BME280;61460;41.158;-73.238;2023-05-25T05:24:03;101657.31;;;26.03;45.72
73245;BME280;61460;41.158;-73.238;2023-05-25T05:26:33;101660.53;;;25.99;45.80
73245;BME280;61460;41.158;-73.238;2023-05-25T05:29:04;101659.87;;;26.00;45.75
73245;BME280;61460;41.158;-73.238;2023-05-25T05:31:34;101653.93;;;26.00;45.70
73245;BME280;61460;41.158;-73.238;2023-05-25T05:34:05;101655.40;;;26.04;45.63
73245;BME280;61460;41.158;-73.238;2023-05-25T05:36:36;101653.13;;;25.99;45.72
73245;BME280;61460;41.158;-73.238;2023-05-25T05:39:06;101645.53;;;25.91;45.89
73245;BME280;61460;41.158;-73.238;2023-05-25T05:41:36;101643.89;;;25.96;45.74
73245;BME280;61460;41.158;-73.238;2023-05-25T05:44:07;101651.08;;;25.98;45.70
73245;BME280;61460;41.158;-73.238;2023-05-25T05:46:38;101654.63;;;25.93;45.75
73245;BME280;61460;41.158;-73.238;2023-05-25T05:49:08;101653.61;;;26.01;45.56
73245;BME280;61460;41.158;-73.238;2023-05-25T05:51:38;101650.69;;;26.01;45.53
73245;BME280;61460;41.158;-73.238;2023-05-25T05:54:08;101648.97;;;26.00;45.53
73245;BME280;61460;41.158;-73.238;2023-05-25T05:56:39;101648.85;;;26.03;45.44
73245;BME280;61460;41.158;-73.238;2023-05-25T05:59:10;101651.16;;;26.01;45.43
73245;BME280;61460;41.158;-73.238;2023-05-25T06:01:40;101650.21;;;26.00;45.41
73245;BME280;61460;41.158;-73.238;2023-05-25T06:04:10;101649.95;;;25.98;45.46
73245;BME280;61460;41.158;-73.238;2023-05-25T06:06:41;101655.35;;;26.01;45.34
73245;BME280;61460;41.158;-73.238;2023-05-25T06:09:11;101643.84;;;25.95;45.43
73245;BME280;61460;41.158;-73.238;2023-05-25T06:11:41;101651.07;;;25.96;45.36
73245;BME280;61460;41.158;-73.238;2023-05-25T06:14:11;101652.66;;;26.01;45.24
73245;BME280;61460;41.158;-73.238;2023-05-25T06:16:42;101654.48;;;25.92;45.38
73245;BME280;61460;41.158;-73.238;2023-05-25T06:19:12;101649.76;;;25.94;45.35
73245;BME280;61460;41.158;-73.238;2023-05-25T06:21:43;101658.03;;;25.97;45.25
73245;BME280;61460;41.158;-73.238;2023-05-25T06:24:14;101663.85;;;25.91;45.38
73245;BME280;61460;41.158;-73.238;2023-05-25T06:26:43;101669.85;;;25.99;45.23
73245;BME280;61460;41.158;-73.238;2023-05-25T06:29:13;101672.78;;;26.01;45.27
73245;BME280;61460;41.158;-73.238;2023-05-25T06:31:44;101672.19;;;25.91;45.45
73245;BME280;61460;41.158;-73.238;2023-05-25T06:34:14;101670.45;;;25.87;45.54
73245;BME280;61460;41.158;-73.238;2023-05-25T06:36:45;101671.24;;;25.92;45.42
73245;BME280;61460;41.158;-73.238;2023-05-25T06:39:15;101668.08;;;25.90;45.42
73245;BME280;61460;41.158;-73.238;2023-05-25T06:41:45;101667.54;;;25.91;45.41
73245;BME280;61460;41.158;-73.238;2023-05-25T06:44:15;101677.40;;;25.88;45.50
73245;BME280;61460;41.158;-73.238;2023-05-25T06:46:46;101678.35;;;25.95;45.31
73245;BME280;61460;41.158;-73.238;2023-05-25T06:49:16;101682.00;;;25.94;45.31
73245;BME280;61460;41.158;-73.238;2023-05-25T06:51:46;101687.23;;;25.93;45.38
73245;BME280;61460;41.158;-73.238;2023-05-25T06:54:17;101689.34;;;25.97;45.33
73245;BME280;61460;41.158;-73.238;2023-05-25T06:56:47;101694.31;;;25.96;45.32
73245;BME280;61460;41.158;-73.238;2023-05-25T06:59:18;101691.38;;;25.89;45.46
73245;BME280;61460;41.158;-73.238;2023-05-25T07:01:49;101682.91;;;25.88;45.53
73245;BME280;61460;41.158;-73.238;2023-05-25T07:04:19;101688.28;;;25.90;45.47
73245;BME280;61460;41.158;-73.238;2023-05-25T07:06:49;101686.69;;;25.90;45.43
73245;BME280;61460;41.158;-73.238;2023-05-25T07:09:20;101691.58;;;25.90;45.41
73245;BME280;61460;41.158;-73.238;2023-05-25T07:11:51;101693.31;;;25.83;45.54
73245;BME280;61460;41.158;-73.238;2023-05-25T07:14:21;101705.48;;;25.88;45.33
73245;BME280;61460;41.158;-73.238;2023-05-25T07:16:51;101714.80;;;25.97;45.12
73245;BME280;61460;41.158;-73.238;2023-05-25T07:19:22;101712.13;;;25.76;45.59
73245;BME280;61460;41.158;-73.238;2023-05-25T07:21:52;101715.27;;;25.81;45.42
73245;BME280;61460;41.158;-73.238;2023-05-25T07:24:23;101718.29;;;25.81;45.38
73245;BME280;61460;41.158;-73.238;2023-05-25T07:26:53;101712.19;;;25.83;45.31
73245;BME280;61460;41.158;-73.238;2023-05-25T07:29:23;101716.16;;;25.86;45.24
73245;BME280;61460;41.158;-73.238;2023-05-25T07:31:54;101720.80;;;25.71;45.60
73245;BME280;61460;41.158;-73.238;2023-05-25T07:34:24;101723.65;;;25.76;45.52
73245;BME280;61460;41.158;-73.238;2023-05-25T07:36:55;101731.56;;;25.82;45.47
73245;BME280;61460;41.158;-73.238;2023-05-25T07:39:26;101730.83;;;25.75;45.66
73245;BME280;61460;41.158;-73.238;2023-05-25T07:41:56;101724.76;;;25.83;45.44
73245;BME280;61460;41.158;-73.238;2023-05-25T07:44:27;101730.65;;;25.79;45.49
73245;BME280;61460;41.158;-73.238;2023-05-25T07:46:57;101735.14;;;25.75;45.53
73245;BME280;61460;41.158;-73.238;2023-05-25T07:49:27;101739.98;;;25.82;45.35
73245;BME280;61460;41.158;-73.238;2023-05-25T07:51:57;101742.30;;;25.74;45.57
73245;BME280;61460;41.158;-73.238;2023-05-25T07:54:28;101745.82;;;25.71;45.63
73245;BME280;61460;41.158;-73.238;2023-05-25T07:56:58;101740.71;;;25.71;45.61
73245;BME280;61460;41.158;-73.238;2023-05-25T07:59:28;101744.42;;;25.76;45.44
73245;BME280;61460;41.158;-73.238;2023-05-25T08:01:58;101745.06;;;25.76;45.42
73245;BME280;61460;41.158;-73.238;2023-05-25T08:04:30;101752.64;;;25.78;45.31
73245;BME280;61460;41.158;-73.238;2023-05-25T08:07:00;101751.46;;;25.77;45.31
73245;BME280;61460;41.158;-73.238;2023-05-25T08:09:30;101760.31;;;25.76;45.30
73245;BME280;61460;41.158;-73.238;2023-05-25T08:12:00;101759.14;;;25.75;45.28
73245;BME280;61460;41.158;-73.238;2023-05-25T08:14:31;101754.45;;;25.77;45.16
73245;BME280;61460;41.158;-73.238;2023-05-25T08:17:01;101756.71;;;25.79;45.08
73245;BME280;61460;41.158;-73.238;2023-05-25T08:19:32;101758.64;;;25.80;45.03
73245;BME280;61460;41.158;-73.238;2023-05-25T08:22:03;101757.05;;;25.72;45.20
73245;BME280;61460;41.158;-73.238;2023-05-25T08:24:33;101758.72;;;25.78;45.07
73245;BME280;61460;41.158;-73.238;2023-05-25T08:27:04;101758.80;;;25.81;44.98
73245;BME280;61460;41.158;-73.238;2023-05-25T08:29:34;101759.68;;;25.76;45.08
73245;BME280;61460;41.158;-73.238;2023-05-25T08:32:05;101753.63;;;25.68;45.25
73245;BME280;61460;41.158;-73.238;2023-05-25T08:34:34;101761.00;;;25.79;45.00
73245;BME280;61460;41.158;-73.238;2023-05-25T08:37:05;101751.04;;;25.73;45.14
73245;BME280;61460;41.158;-73.238;2023-05-25T08:39:35;101758.69;;;25.69;45.19
73245;BME280;61460;41.158;-73.238;2023-05-25T08:42:06;101762.29;;;25.65;45.32
73245;BME280;61460;41.158;-73.238;2023-05-25T08:44:37;101763.71;;;25.76;45.12
73245;BME280;61460;41.158;-73.238;2023-05-25T08:47:07;101759.19;;;25.69;45.27
73245;BME280;61460;41.158;-73.238;2023-05-25T08:49:38;101765.72;;;25.66;45.47
73245;BME280;61460;41.158;-73.238;2023-05-25T08:52:12;101761.89;;;25.66;45.39
73245;BME280;61460;41.158;-73.238;2023-05-25T08:54:38;101766.84;;;25.56;45.60
73245;BME280;61460;41.158;-73.238;2023-05-25T08:57:12;101764.57;;;25.58;45.48
73245;BME280;61460;41.158;-73.238;2023-05-25T08:59:46;101774.47;;;25.61;45.44
73245;BME280;61460;41.158;-73.238;2023-05-25T09:02:20;101779.02;;;25.63;45.36
73245;BME280;61460;41.158;-73.238;2023-05-25T09:04:41;101780.98;;;25.61;45.40
73245;BME280;61460;41.158;-73.238;2023-05-25T09:07:10;101780.92;;;25.66;45.25
73245;BME280;61460;41.158;-73.238;2023-05-25T09:09:40;101780.90;;;25.61;45.26
73245;BME280;61460;41.158;-73.238;2023-05-25T09:12:11;101779.65;;;25.60;45.22
73245;BME280;61460;41.158;-73.238;2023-05-25T09:14:41;101783.48;;;25.49;45.45
73245;BME280;61460;41.158;-73.238;2023-05-25T09:17:14;101781.51;;;25.46;45.45
73245;BME280;61460;41.158;-73.238;2023-05-25T09:19:42;101783.45;;;25.63;45.04
73245;BME280;61460;41.158;-73.238;2023-05-25T09:22:12;101780.81;;;25.59;45.06
73245;BME280;61460;41.158;-73.238;2023-05-25T09:24:43;101787.06;;;25.54;45.12
73245;BME280;61460;41.158;-73.238;2023-05-25T09:27:16;101793.35;;;25.55;45.03
73245;BME280;61460;41.158;-73.238;2023-05-25T09:29:46;101793.64;;;25.48;45.19
73245;BME280;61460;41.158;-73.238;2023-05-25T09:32:15;101800.85;;;25.54;45.02
73245;BME280;61460;41.158;-73.238;2023-05-25T09:34:45;101802.57;;;25.47;45.10
73245;BME280;61460;41.158;-73.238;2023-05-25T09:37:16;101802.68;;;25.53;44.96
73245;BME280;61460;41.158;-73.238;2023-05-25T09:39:46;101809.53;;;25.46;45.11
73245;BME280;61460;41.158;-73.238;2023-05-25T09:42:16;101810.05;;;25.54;44.92
73245;BME280;61460;41.158;-73.238;2023-05-25T09:44:46;101814.25;;;25.48;45.00
73245;BME280;61460;41.158;-73.238;2023-05-25T09:47:17;101819.94;;;25.38;45.30
73245;BME280;61460;41.158;-73.238;2023-05-25T09:49:48;101819.62;;;25.41;45.29
73245;BME280;61460;41.158;-73.238;2023-05-25T09:52:18;101822.67;;;25.43;45.16
73245;BME280;61460;41.158;-73.238;2023-05-25T09:54:49;101821.39;;;25.43;45.17
73245;BME280;61460;41.158;-73.238;2023-05-25T09:57:19;101828.88;;;25.40;45.16
73245;BME280;61460;41.158;-73.238;2023-05-25T09:59:49;101833.35;;;25.47;45.02
73245;BME280;61460;41.158;-73.238;2023-05-25T10:02:19;101834.39;;;25.40;45.16
73245;BME280;61460;41.158;-73.238;2023-05-25T10:04:49;101840.27;;;25.39;45.09
73245;BME280;61460;41.158;-73.238;2023-05-25T10:07:19;101837.66;;;25.40;45.08
73245;BME280;61460;41.158;-73.238;2023-05-25T10:09:50;101848.51;;;25.38;45.02
73245;BME280;61460;41.158;-73.238;2023-05-25T10:12:21;101851.65;;;25.41;44.99
73245;BME280;61460;41.158;-73.238;2023-05-25T10:14:51;101853.25;;;25.50;44.79
73245;BME280;61460;41.158;-73.238;2023-05-25T10:17:23;101858.05;;;25.42;44.91
73245;BME280;61460;41.158;-73.238;2023-05-25T10:19:55;101851.39;;;25.34;45.04
73245;BME280;61460;41.158;-73.238;2023-05-25T10:22:29;101859.13;;;25.47;44.82
73245;BME280;61460;41.158;-73.238;2023-05-25T10:24:58;101865.66;;;25.38;44.96
73245;BME280;61460;41.158;-73.238;2023-05-25T10:27:30;101869.02;;;25.40;44.96
73245;BME280;61460;41.158;-73.238;2023-05-25T10:29:56;101875.98;;;25.37;45.01
73245;BME280;61460;41.158;-73.238;2023-05-25T10:32:26;101884.16;;;25.40;44.92
73245;BME280;61460;41.158;-73.238;2023-05-25T10:34:57;101882.63;;;25.37;44.96
73245;BME280;61460;41.158;-73.238;2023-05-25T10:37:27;101884.54;;;25.37;44.95
73245;BME280;61460;41.158;-73.238;2023-05-25T10:39:57;101890.51;;;25.34;44.95
73245;BME280;61460;41.158;-73.238;2023-05-25T10:42:27;101889.26;;;25.47;44.74
73245;BME280;61460;41.158;-73.238;2023-05-25T10:44:58;101892.73;;;25.45;44.78
73245;BME280;61460;41.158;-73.238;2023-05-25T10:47:29;101892.91;;;25.38;44.94
73245;BME280;61460;41.158;-73.238;2023-05-25T10:49:59;101898.94;;;25.35;45.00
73245;BME280;61460;41.158;-73.238;2023-05-25T10:52:31;101905.91;;;25.45;44.78
73245;BME280;61460;41.158;-73.238;2023-05-25T10:55:01;101914.65;;;25.50;44.62
73245;BME280;61460;41.158;-73.238;2023-05-25T10:57:30;101914.97;;;25.42;44.75
73245;BME280;61460;41.158;-73.238;2023-05-25T11:00:02;101915.06;;;25.50;44.58
73245;BME280;61460;41.158;-73.238;2023-05-25T11:10:03;101923.52;;;25.52;44.70
73245;BME280;61460;41.158;-73.238;2023-05-25T11:12:34;101924.47;;;25.57;44.53
73245;BME280;61460;41.158;-73.238;2023-05-25T11:15:11;101933.14;;;25.56;44.45
73245;BME280;61460;41.158;-73.238;2023-05-25T11:20:06;101935.71;;;25.56;44.73
73245;BME280;61460;41.158;-73.238;2023-05-25T11:22:37;101937.31;;;25.61;44.73
73245;BME280;61460;41.158;-73.238;2023-05-25T11:27:44;101933.84;;;25.67;44.94
73245;BME280;61460;41.158;-73.238;2023-05-25T11:30:09;101938.31;;;25.59;45.50
73245;BME280;61460;41.158;-73.238;2023-05-25T11:32:47;101941.36;;;25.57;45.73
73245;BME280;61460;41.158;-73.238;2023-05-25T11:35:09;101937.74;;;25.52;46.04
73245;BME280;61460;41.158;-73.238;2023-05-25T11:37:39;101942.10;;;25.54;46.21
73245;BME280;61460;41.158;-73.238;2023-05-25T11:40:10;101942.73;;;25.54;46.27
73245;BME280;61460;41.158;-73.238;2023-05-25T11:42:41;101945.22;;;25.69;45.76
73245;BME280;61460;41.158;-73.238;2023-05-25T11:45:10;101943.45;;;25.72;45.66
73245;BME280;61460;41.158;-73.238;2023-05-25T11:47:40;101950.11;;;25.83;45.10
73245;BME280;61460;41.158;-73.238;2023-05-25T11:50:14;101951.16;;;25.78;45.09
73245;BME280;61460;41.158;-73.238;2023-05-25T11:52:41;101959.44;;;25.92;44.36
73245;BME280;61460;41.158;-73.238;2023-05-25T11:55:13;101963.63;;;25.73;44.54
73245;BME280;61460;41.158;-73.238;2023-05-25T11:57:42;101963.16;;;25.95;44.01
73245;BME280;61460;41.158;-73.238;2023-05-25T12:02:42;101962.82;;;25.99;43.44
73245;BME280;61460;41.158;-73.238;2023-05-25T12:05:13;101962.58;;;26.05;43.59
73245;BME280;61460;41.158;-73.238;2023-05-25T12:07:44;101968.56;;;25.97;43.62
73245;BME280;61460;41.158;-73.238;2023-05-25T12:10:15;101958.72;;;26.05;43.21
73245;BME280;61460;41.158;-73.238;2023-05-25T12:12:47;101960.68;;;25.82;42.97
73245;BME280;61460;41.158;-73.238;2023-05-25T12:15:20;101958.93;;;25.83;43.51
73245;BME280;61460;41.158;-73.238;2023-05-25T12:17:46;101952.68;;;25.96;43.17
73245;BME280;61460;41.158;-73.238;2023-05-25T12:20:17;101955.88;;;26.02;42.99
73245;BME280;61460;41.158;-73.238;2023-05-25T12:22:48;101945.98;;;26.02;42.63
73245;BME280;61460;41.158;-73.238;2023-05-25T12:25:19;101951.81;;;26.01;42.80
73245;BME280;61460;41.158;-73.238;2023-05-25T12:27:48;101949.08;;;25.91;42.92
73245;BME280;61460;41.158;-73.238;2023-05-25T12:30:26;101946.05;;;26.05;42.67
73245;BME280;61460;41.158;-73.238;2023-05-25T12:32:53;101946.88;;;25.78;43.17
73245;BME280;61460;41.158;-73.238;2023-05-25T12:35:20;101940.54;;;25.93;42.44
73245;BME280;61460;41.158;-73.238;2023-05-25T12:40:21;101946.52;;;26.00;42.44
73245;BME280;61460;41.158;-73.238;2023-05-25T12:42:56;101944.59;;;25.91;42.58
73245;BME280;61460;41.158;-73.238;2023-05-25T12:45:21;101954.61;;;25.97;41.76
73245;BME280;61460;41.158;-73.238;2023-05-25T12:47:52;101954.40;;;25.99;41.78
73245;BME280;61460;41.158;-73.238;2023-05-25T12:50:22;101955.67;;;25.92;42.08
73245;BME280;61460;41.158;-73.238;2023-05-25T12:52:59;101963.39;;;26.05;41.66
73245;BME280;61460;41.158;-73.238;2023-05-25T12:55:25;101965.84;;;25.97;41.83
73245;BME280;61460;41.158;-73.238;2023-05-25T12:57:55;101970.22;;;26.08;41.77
73245;BME280;61460;41.158;-73.238;2023-05-25T13:00:28;101967.47;;;26.10;41.60
73245;BME280;61460;41.158;-73.238;2023-05-25T13:02:56;101976.95;;;26.08;41.35